createdAt,value
2023-03-04T00:00:03.394Z,100446.81
2023-03-04T00:02:30.346Z,100446.34
2023-03-04T00:04:57.387Z,100445.97
2023-03-04T00:07:24.479Z,100471.47
2023-03-04T00:09:51.412Z,100460.88
2023-03-04T00:12:18.426Z,100461.44
2023-03-04T00:14:45.446Z,100465.41
2023-03-04T00:17:12.464Z,100469.88
2023-03-04T00:19:39.556Z,100508.47
2023-03-04T00:22:06.611Z,100498.81
2023-03-04T00:24:33.631Z,100530.97
2023-03-04T00:27:00.734Z,100528.88
2023-03-04T00:29:28.050Z,100523.66
2023-03-04T00:31:55.135Z,100530.00
2023-03-04T00:34:22.330Z,100530.56
2023-03-04T00:36:49.453Z,100531.44
2023-03-04T00:39:16.765Z,100547.25
2023-03-04T00:41:43.820Z,100546.22
2023-03-04T00:44:10.894Z,100557.38
2023-03-04T00:46:38.812Z,100566.13
2023-03-04T00:49:05.819Z,100570.38
2023-03-04T00:51:32.821Z,100572.56
2023-03-04T00:54:00.981Z,100573.63
2023-03-04T00:56:28.390Z,100582.94
2023-03-04T00:58:55.655Z,100595.31
2023-03-04T01:01:22.815Z,100598.63
2023-03-04T01:03:49.810Z,100613.59
2023-03-04T01:06:16.891Z,100617.06
2023-03-04T01:08:44.073Z,100617.06
2023-03-04T01:11:11.437Z,100628.66
2023-03-04T01:13:38.879Z,100627.84
2023-03-04T01:16:07.225Z,100623.38
2023-03-04T01:18:34.304Z,100616.72
2023-03-04T01:21:01.444Z,100615.81
2023-03-04T01:23:28.473Z,100620.34
2023-03-04T01:25:55.517Z,100611.97
2023-03-04T01:28:22.489Z,100624.66
2023-03-04T01:30:49.532Z,100615.41
2023-03-04T01:33:16.629Z,100614.69
2023-03-04T01:35:43.665Z,100614.50
2023-03-04T01:38:10.747Z,100646.53
2023-03-04T01:40:38.166Z,100649.59
2023-03-04T01:43:05.983Z,100634.41
2023-03-04T01:45:33.872Z,100637.47
2023-03-04T01:48:01.044Z,100639.97
2023-03-04T01:50:34.092Z,100642.03
2023-03-04T01:53:02.937Z,100641.69
2023-03-04T01:55:31.054Z,100666.91
2023-03-04T01:57:58.087Z,100685.44
2023-03-04T02:00:31.945Z,100680.16
2023-03-04T02:03:04.637Z,100690.00
2023-03-04T02:05:31.711Z,100691.88
2023-03-04T02:07:59.946Z,100684.00
2023-03-04T02:10:27.352Z,100687.06
2023-03-04T02:12:54.712Z,100700.94
2023-03-04T02:15:22.288Z,100710.25
2023-03-04T02:17:49.994Z,100711.13
2023-03-04T02:20:31.348Z,100701.22
2023-03-04T02:23:10.156Z,100704.34
2023-03-04T02:26:11.440Z,100702.53
2023-03-04T02:28:38.441Z,100693.69
2023-03-04T02:31:05.882Z,100707.38
2023-03-04T02:33:33.343Z,100699.94
2023-03-04T02:36:00.320Z,100699.59
2023-03-04T02:38:27.275Z,100719.09
2023-03-04T02:40:56.566Z,100717.28
2023-03-04T02:43:23.597Z,100710.13
2023-03-04T02:45:51.729Z,100713.34
2023-03-04T02:48:23.972Z,100719.34
2023-03-04T02:50:53.841Z,100715.06
2023-03-04T02:53:22.129Z,100709.50
2023-03-04T02:55:49.655Z,100714.88
2023-03-04T02:58:16.926Z,100725.34
2023-03-04T03:00:44.039Z,100731.97
2023-03-04T03:03:11.259Z,100733.66
2023-03-04T03:05:39.081Z,100729.91
2023-03-04T03:08:06.674Z,100732.69
2023-03-04T03:10:34.309Z,100742.25
2023-03-04T03:13:01.310Z,100760.66
2023-03-04T03:15:28.279Z,100753.81
2023-03-04T03:17:55.305Z,100756.31
2023-03-04T03:20:22.330Z,100758.38
2023-03-04T03:22:49.361Z,100769.59
2023-03-04T03:25:17.526Z,100767.84
2023-03-04T03:27:44.582Z,100796.91
2023-03-04T03:30:15.083Z,100792.59
2023-03-04T03:32:42.155Z,100796.00
2023-03-04T03:35:09.922Z,100822.56
2023-03-04T03:37:36.935Z,100821.81
2023-03-04T03:40:05.025Z,100814.94
2023-03-04T03:42:32.081Z,100821.44
2023-03-04T03:44:59.070Z,100821.44
2023-03-04T03:47:26.084Z,100821.34
2023-03-04T03:49:53.233Z,100838.00
2023-03-04T03:52:20.261Z,100826.06
2023-03-04T03:54:47.332Z,100821.34
2023-03-04T03:57:14.484Z,100844.78
2023-03-04T03:59:41.936Z,100829.16
2023-03-04T04:02:09.173Z,100841.28
2023-03-04T04:04:36.197Z,100851.16
2023-03-04T04:07:03.297Z,100852.06
2023-03-04T04:09:30.259Z,100852.38
2023-03-04T04:11:57.721Z,100850.69
2023-03-04T04:14:24.756Z,100854.97
2023-03-04T04:16:51.898Z,100864.88
2023-03-04T04:19:20.429Z,100851.91
2023-03-04T04:21:47.871Z,100858.38
2023-03-04T04:24:16.289Z,100867.78
2023-03-04T04:26:43.482Z,100857.91
2023-03-04T04:29:13.548Z,100858.78
2023-03-04T04:31:41.287Z,100863.69
2023-03-04T04:34:08.717Z,100858.81
2023-03-04T04:36:35.830Z,100849.94
2023-03-04T04:39:03.604Z,100857.53
2023-03-04T04:41:37.432Z,100871.88
2023-03-04T04:44:04.752Z,100869.78
2023-03-04T04:46:31.910Z,100860.72
2023-03-04T04:48:58.960Z,100865.09
2023-03-04T04:51:25.977Z,100873.78
2023-03-04T04:53:52.906Z,100876.75
2023-03-04T04:56:26.304Z,100879.47
2023-03-04T04:58:56.763Z,100881.16
2023-03-04T05:01:25.025Z,100888.22
2023-03-04T05:03:53.341Z,100890.03
2023-03-04T05:06:21.705Z,100881.34
2023-03-04T05:08:49.488Z,100876.25
2023-03-04T05:11:17.550Z,100884.13
2023-03-04T05:13:44.537Z,100887.22
2023-03-04T05:16:11.835Z,100883.31
2023-03-04T05:18:38.889Z,100902.16
2023-03-04T05:21:06.697Z,100905.03
2023-03-04T05:23:37.716Z,100903.94
2023-03-04T05:26:06.894Z,100897.75
2023-03-04T05:28:35.397Z,100901.56
2023-03-04T05:31:03.389Z,100920.72
2023-03-04T05:33:30.844Z,100919.50
2023-03-04T05:35:58.374Z,100922.19
2023-03-04T05:38:25.837Z,100940.47
2023-03-04T05:40:59.368Z,100944.03
2023-03-04T05:43:28.005Z,100946.84
2023-03-04T05:45:55.792Z,100969.38
2023-03-04T05:48:23.917Z,100968.06
2023-03-04T05:50:56.572Z,100970.84
2023-03-04T05:53:24.242Z,100973.63
2023-03-04T05:55:52.336Z,100981.41
2023-03-04T05:58:20.338Z,100988.47
2023-03-04T06:00:47.803Z,100987.09
2023-03-04T06:03:21.457Z,100986.81
2023-03-04T06:05:48.793Z,100998.19
2023-03-04T06:08:15.843Z,100999.38
2023-03-04T06:10:43.160Z,101013.03
2023-03-04T06:13:10.491Z,101026.72
2023-03-04T06:15:39.772Z,101020.66
2023-03-04T06:18:07.942Z,101016.34
2023-03-04T06:20:35.253Z,101020.94
2023-03-04T06:23:02.350Z,101021.75
2023-03-04T06:25:29.971Z,101027.72
2023-03-04T06:27:56.977Z,101035.44
2023-03-04T06:30:24.487Z,101043.53
2023-03-04T06:32:51.513Z,101053.31
2023-03-04T06:35:18.627Z,101053.13
2023-03-04T06:37:45.788Z,101059.97
2023-03-04T06:40:14.116Z,101087.72
2023-03-04T06:42:42.222Z,101079.94
2023-03-04T06:45:10.688Z,101083.63
2023-03-04T06:47:38.025Z,101090.09
2023-03-04T06:50:05.820Z,101097.34
2023-03-04T06:52:33.057Z,101106.19
2023-03-04T06:55:00.181Z,101108.34
2023-03-04T06:57:27.279Z,101100.16
2023-03-04T06:59:54.453Z,101078.47
2023-03-04T07:02:21.642Z,101082.44
2023-03-04T07:04:48.972Z,101076.59
2023-03-04T07:07:16.100Z,101082.72
2023-03-04T07:09:43.161Z,101076.44
2023-03-04T07:12:10.343Z,101087.88
2023-03-04T07:14:37.446Z,101084.91
2023-03-04T07:17:04.529Z,101086.53
2023-03-04T07:19:31.567Z,101085.38
2023-03-04T07:21:58.599Z,101093.81
2023-03-04T07:24:25.624Z,101089.31
2023-03-04T07:26:52.656Z,101099.19
2023-03-04T07:29:19.720Z,101097.56
2023-03-04T07:31:46.979Z,101097.28
2023-03-04T07:34:15.105Z,101098.34
2023-03-04T07:36:42.787Z,101094.13
2023-03-04T07:39:11.705Z,101082.53
2023-03-04T07:41:39.024Z,101077.69
2023-03-04T07:44:08.093Z,101089.63
2023-03-04T07:46:35.791Z,101081.69
2023-03-04T07:49:03.236Z,101087.22
2023-03-04T07:51:30.617Z,101084.03
2023-03-04T07:54:00.615Z,101075.84
2023-03-04T07:56:31.677Z,101075.28
2023-03-04T07:59:00.354Z,101080.03
2023-03-04T08:01:35.282Z,101075.94
2023-03-04T08:04:04.507Z,101083.38
2023-03-04T08:06:32.155Z,101078.25
2023-03-04T08:09:08.163Z,101077.03
2023-03-04T08:11:38.025Z,101075.81
2023-03-04T08:14:06.306Z,101072.56
2023-03-04T08:16:33.693Z,101061.97
2023-03-04T08:19:03.176Z,101060.50
2023-03-04T08:21:30.752Z,101052.00
2023-03-04T08:24:02.625Z,101060.06
2023-03-04T08:26:35.372Z,101052.41
2023-03-04T08:29:05.406Z,101050.38
2023-03-04T08:31:33.177Z,101056.72
2023-03-04T08:34:02.172Z,101049.13
2023-03-04T08:36:29.367Z,101048.47
2023-03-04T08:41:34.580Z,101043.63
2023-03-04T08:44:02.370Z,101028.63
2023-03-04T08:46:29.874Z,101033.44
2023-03-04T08:48:57.160Z,101028.28
2023-03-04T08:51:27.015Z,101029.84
2023-03-04T08:53:54.239Z,101034.47
2023-03-04T08:56:21.249Z,101031.34
2023-03-04T08:58:48.346Z,101023.72
2023-03-04T09:01:17.156Z,101009.19
2023-03-04T09:03:44.686Z,100992.00
2023-03-04T09:06:16.098Z,100980.75
2023-03-04T09:08:44.776Z,100977.59
2023-03-04T09:11:13.620Z,100969.16
2023-03-04T09:13:40.908Z,100975.72
2023-03-04T09:16:13.467Z,100954.88
2023-03-04T09:18:42.074Z,100938.59
2023-03-04T09:21:13.732Z,100935.72
2023-03-04T09:23:41.428Z,100915.34
2023-03-04T09:26:23.565Z,100899.72
2023-03-04T09:28:57.968Z,100897.41
2023-03-04T09:31:29.706Z,100881.22
2023-03-04T09:33:58.747Z,100865.59
2023-03-04T09:36:27.180Z,100850.06
2023-03-04T09:38:54.511Z,100823.22
2023-03-04T09:41:47.352Z,100820.09
2023-03-04T09:44:26.684Z,100798.91
2023-03-04T09:46:59.421Z,100776.22
2023-03-04T09:49:27.681Z,100759.44
2023-03-04T09:52:51.060Z,100762.56
2023-03-04T09:55:31.923Z,100768.00
2023-03-04T09:58:31.314Z,100758.34
2023-03-04T10:01:11.081Z,100761.16
2023-03-04T10:03:48.998Z,100746.03
2023-03-04T10:06:23.847Z,100761.28
2023-03-04T10:09:07.143Z,100768.19
2023-03-04T10:12:03.318Z,100780.38
2023-03-04T10:14:38.002Z,100779.47
2023-03-04T10:17:45.661Z,100773.28
2023-03-04T10:20:26.969Z,100746.25
2023-03-04T10:23:00.619Z,100739.41
2023-03-04T10:25:33.349Z,100744.13
2023-03-04T10:28:05.363Z,100734.81
2023-03-04T10:30:58.807Z,100713.44
2023-03-04T10:33:30.873Z,100718.91
2023-03-04T10:36:04.672Z,100719.44
2023-03-04T10:38:36.370Z,100699.97
2023-03-04T10:41:24.770Z,100697.28
2023-03-04T10:44:04.527Z,100677.81
2023-03-04T10:46:32.865Z,100656.66
2023-03-04T10:49:00.093Z,100669.38
2023-03-04T10:51:30.110Z,100658.84
2023-03-04T10:54:25.387Z,100639.53
2023-03-04T10:57:05.357Z,100637.19
2023-03-04T10:59:41.942Z,100642.19
2023-03-04T11:02:38.948Z,100648.75
2023-03-04T11:05:14.805Z,100613.44
2023-03-04T11:07:56.240Z,100584.41
2023-03-04T11:10:36.171Z,100589.16
2023-03-04T11:13:18.729Z,100574.41
2023-03-04T11:16:24.193Z,100546.31
2023-03-04T11:19:09.671Z,100543.59
2023-03-04T11:21:41.062Z,100548.16
2023-03-04T11:24:30.998Z,100533.06
2023-03-04T11:27:42.904Z,100516.56
2023-03-04T11:30:21.916Z,100517.56
2023-03-04T11:32:53.250Z,100533.09
2023-03-04T11:35:35.466Z,100508.38
2023-03-04T11:38:29.762Z,100482.66
2023-03-04T11:41:05.192Z,100503.25
2023-03-04T11:43:41.347Z,100506.13
2023-03-04T11:46:36.841Z,100503.72
2023-03-04T11:49:15.876Z,100497.69
2023-03-04T11:52:16.760Z,100504.44
2023-03-04T11:55:08.013Z,100499.81
2023-03-04T11:57:49.241Z,100497.09
2023-03-04T12:00:32.306Z,100488.41
2023-03-04T12:03:24.818Z,100468.50
2023-03-04T12:06:18.465Z,100466.50
2023-03-04T12:09:03.699Z,100474.66
2023-03-04T12:11:40.816Z,100473.53
2023-03-04T12:14:35.306Z,100440.34
2023-03-04T12:17:45.911Z,100400.56
2023-03-04T12:20:56.140Z,100390.28
2023-03-04T12:24:19.065Z,100392.38
2023-03-04T12:27:47.275Z,100376.53
2023-03-04T12:31:03.940Z,100402.25
2023-03-04T12:33:55.657Z,100375.22
2023-03-04T12:36:43.347Z,100341.84
2023-03-04T12:39:42.817Z,100324.25
2023-03-04T12:42:40.726Z,100319.84
2023-03-04T12:45:41.783Z,100336.59
2023-03-04T12:48:33.979Z,100347.19
2023-03-04T12:51:16.614Z,100344.50
2023-03-04T12:54:20.454Z,100342.56
2023-03-04T12:57:12.770Z,100316.13
2023-03-04T13:00:21.323Z,100309.19
2023-03-04T13:03:13.994Z,100312.78
2023-03-04T13:06:11.683Z,100325.88
2023-03-04T13:08:51.205Z,100331.03
2023-03-04T13:11:27.563Z,100332.06
2023-03-04T13:14:17.484Z,100331.19
2023-03-04T13:16:46.841Z,100326.78
2023-03-04T13:19:57.075Z,100337.25
2023-03-04T13:22:39.544Z,100348.81
2023-03-04T13:25:31.834Z,100348.72
2023-03-04T13:28:10.488Z,100341.72
2023-03-04T13:30:38.360Z,100323.69
2023-03-04T13:33:12.777Z,100337.13
2023-03-04T13:36:01.055Z,100334.59
2023-03-04T13:38:31.221Z,100354.00
2023-03-04T13:41:27.798Z,100342.50
2023-03-04T13:44:03.509Z,100346.09
2023-03-04T13:46:50.785Z,100339.03
2023-03-04T13:49:27.411Z,100352.31
2023-03-04T13:52:01.823Z,100337.25
2023-03-04T13:54:33.093Z,100333.84
2023-03-04T13:57:20.578Z,100352.25
2023-03-04T13:59:58.663Z,100360.31
2023-03-04T14:02:27.446Z,100346.09
2023-03-04T14:04:54.523Z,100335.63
2023-03-04T14:07:29.848Z,100342.50
2023-03-04T14:10:15.091Z,100341.66
2023-03-04T14:12:55.066Z,100331.19
2023-03-04T14:15:30.874Z,100337.50
2023-03-04T14:18:04.414Z,100322.38
2023-03-04T14:20:59.304Z,100336.59
2023-03-04T14:23:36.166Z,100332.16
2023-03-04T14:26:15.916Z,100331.28
2023-03-04T14:28:49.884Z,100334.78
2023-03-04T14:31:22.791Z,100348.06
2023-03-04T14:34:13.650Z,100343.81
2023-03-04T14:36:44.444Z,100329.72
2023-03-04T14:39:18.464Z,100327.06
2023-03-04T14:41:48.059Z,100323.84
2023-03-04T14:44:24.933Z,100311.84
2023-03-04T14:47:07.488Z,100305.75
2023-03-04T14:49:37.306Z,100294.50
2023-03-04T14:52:04.839Z,100264.81
2023-03-04T14:54:38.637Z,100246.25
2023-03-04T14:57:27.444Z,100224.56
2023-03-04T14:59:54.869Z,100236.06
2023-03-04T15:02:33.289Z,100213.13
2023-03-04T15:05:25.971Z,100214.13
2023-03-04T15:08:25.225Z,100202.88
2023-03-04T15:11:01.922Z,100191.38
2023-03-04T15:13:49.919Z,100200.28
2023-03-04T15:16:23.534Z,100191.69
2023-03-04T15:19:06.118Z,100200.44
2023-03-04T15:21:34.779Z,100199.69
2023-03-04T15:24:03.856Z,100188.34
2023-03-04T15:26:38.686Z,100164.66
2023-03-04T15:29:19.218Z,100146.25
2023-03-04T15:31:50.009Z,100148.13
2023-03-04T15:34:19.631Z,100143.63
2023-03-04T15:36:53.094Z,100146.25
2023-03-04T15:39:21.925Z,100163.00
2023-03-04T15:41:50.708Z,100177.81
2023-03-04T15:44:18.102Z,100187.38
2023-03-04T15:46:45.283Z,100170.81
2023-03-04T15:49:12.495Z,100152.34
2023-03-04T15:51:40.150Z,100142.75
2023-03-04T15:54:17.186Z,100123.56
2023-03-04T15:56:44.315Z,100133.16
2023-03-04T15:59:14.334Z,100142.03
2023-03-04T16:01:41.585Z,100120.88
2023-03-04T16:04:18.836Z,100124.44
2023-03-04T16:06:47.879Z,100148.22
2023-03-04T16:09:18.804Z,100171.22
2023-03-04T16:11:47.882Z,100180.16
2023-03-04T16:14:16.341Z,100160.56
2023-03-04T16:16:44.478Z,100148.88
2023-03-04T16:19:11.938Z,100189.06
2023-03-04T16:21:39.251Z,100180.16
2023-03-04T16:24:07.034Z,100186.28
2023-03-04T16:26:36.315Z,100187.13
2023-03-04T16:29:03.530Z,100191.28
2023-03-04T16:31:30.755Z,100186.13
2023-03-04T16:33:58.093Z,100159.75
2023-03-04T16:36:27.886Z,100156.16
2023-03-04T16:39:02.809Z,100144.91
2023-03-04T16:41:30.783Z,100144.81
2023-03-04T16:44:01.690Z,100144.56
2023-03-04T16:46:30.342Z,100144.22
2023-03-04T16:48:57.491Z,100164.34
2023-03-04T16:51:24.596Z,100165.25
2023-03-04T16:54:02.126Z,100189.63
2023-03-04T16:56:29.766Z,100207.88
2023-03-04T16:58:57.209Z,100203.53
2023-03-04T17:01:28.931Z,100203.56
2023-03-04T17:03:56.804Z,100194.78
2023-03-04T17:06:25.278Z,100189.63
2023-03-04T17:08:52.430Z,100194.56
2023-03-04T17:11:23.505Z,100199.84
2023-03-04T17:13:51.735Z,100197.31
2023-03-04T17:16:19.913Z,100207.47
2023-03-04T17:18:51.595Z,100224.19
2023-03-04T17:21:23.288Z,100220.81
2023-03-04T17:23:51.094Z,100209.66
2023-03-04T17:26:21.193Z,100202.59
2023-03-04T17:28:51.999Z,100206.97
2023-03-04T17:31:20.741Z,100207.75
2023-03-04T17:33:49.525Z,100208.78
2023-03-04T17:36:18.309Z,100196.72
2023-03-04T17:38:46.536Z,100195.88
2023-03-04T17:41:17.690Z,100201.88
2023-03-04T17:43:51.361Z,100194.03
2023-03-04T17:46:23.677Z,100189.72
2023-03-04T17:48:56.487Z,100204.50
2023-03-04T17:51:36.623Z,100198.47
2023-03-04T17:54:05.870Z,100204.50
2023-03-04T17:56:34.134Z,100205.47
2023-03-04T17:59:05.681Z,100205.78
2023-03-04T18:01:32.762Z,100195.28
2023-03-04T18:04:05.624Z,100177.94
2023-03-04T18:06:33.012Z,100168.38
2023-03-04T18:09:00.141Z,100163.91
2023-03-04T18:11:28.218Z,100173.59
2023-03-04T18:13:56.726Z,100183.09
2023-03-04T18:16:27.284Z,100172.00
2023-03-04T18:19:00.117Z,100167.72
2023-03-04T18:21:29.680Z,100164.09
2023-03-04T18:23:57.678Z,100154.50
2023-03-04T18:29:08.053Z,100173.56
2023-03-04T18:31:37.142Z,100168.22
2023-03-04T18:34:05.199Z,100170.84
2023-03-04T18:36:33.084Z,100164.63
2023-03-04T18:39:00.456Z,100168.91
2023-03-04T18:41:28.352Z,100183.78
2023-03-04T18:43:55.575Z,100187.09
2023-03-04T18:46:44.499Z,100197.63
2023-03-04T18:49:12.902Z,100187.94
2023-03-04T18:51:40.161Z,100190.56
2023-03-04T18:54:07.640Z,100201.81
2023-03-04T18:56:47.095Z,100214.69
2023-03-04T18:59:31.307Z,100218.41
2023-03-04T19:01:59.478Z,100199.09
2023-03-04T19:04:28.476Z,100216.25
2023-03-04T19:06:55.867Z,100231.16
2023-03-04T19:09:22.866Z,100238.91
2023-03-04T19:11:49.988Z,100237.91
2023-03-04T19:14:17.110Z,100265.38
2023-03-04T19:16:44.264Z,100305.50
2023-03-04T19:19:11.440Z,100292.47
2023-03-04T19:21:40.257Z,100276.97
2023-03-04T19:24:08.237Z,100275.34
2023-03-04T19:26:35.583Z,100308.13
2023-03-04T19:29:02.712Z,100307.00
2023-03-04T19:31:29.954Z,100314.06
2023-03-04T19:33:57.210Z,100312.34
2023-03-04T19:36:25.753Z,100303.41
2023-03-04T19:38:52.913Z,100349.41
2023-03-04T19:41:20.106Z,100353.66
2023-03-04T19:43:50.262Z,100356.38
2023-03-04T19:46:17.514Z,100351.28
2023-03-04T19:48:45.223Z,100339.03
2023-03-04T19:51:26.118Z,100329.72
2023-03-04T19:53:54.528Z,100315.50
2023-03-04T19:56:22.957Z,100319.66
2023-03-04T19:58:58.765Z,100333.03
2023-03-04T20:01:28.579Z,100327.16
2023-03-04T20:04:10.791Z,100311.34
2023-03-04T20:06:42.345Z,100310.47
2023-03-04T20:09:09.983Z,100303.78
2023-03-04T20:11:44.254Z,100287.97
2023-03-04T20:14:22.428Z,100287.28
2023-03-04T20:16:49.493Z,100295.03
2023-03-04T20:19:16.475Z,100287.09
2023-03-04T20:21:43.681Z,100279.03
2023-03-04T20:24:10.652Z,100270.28
2023-03-04T20:26:39.484Z,100256.13
2023-03-04T20:29:06.792Z,100237.41
2023-03-04T20:31:38.980Z,100235.66
2023-03-04T20:34:07.897Z,100235.66
2023-03-04T20:36:36.002Z,100219.22
2023-03-04T20:39:10.175Z,100206.97
2023-03-04T20:41:42.384Z,100196.22
2023-03-04T20:44:09.484Z,100217.81
2023-03-04T20:46:45.312Z,100228.00
2023-03-04T20:49:22.281Z,100248.69
2023-03-04T20:51:51.299Z,100270.72
2023-03-04T20:54:18.360Z,100267.34
2023-03-04T20:56:45.867Z,100274.13
2023-03-04T20:59:13.754Z,100287.03
2023-03-04T21:01:43.521Z,100308.72
2023-03-04T21:04:11.453Z,100314.66
2023-03-04T21:06:39.618Z,100325.03
2023-03-04T21:09:11.210Z,100351.16
2023-03-04T21:11:41.367Z,100366.69
2023-03-04T21:14:23.293Z,100356.75
2023-03-04T21:16:56.755Z,100344.09
2023-03-04T21:19:28.913Z,100345.78
2023-03-04T21:21:58.351Z,100340.50
2023-03-04T21:24:29.629Z,100349.28
2023-03-04T21:26:57.339Z,100348.66
2023-03-04T21:29:27.025Z,100346.03
2023-03-04T21:32:16.829Z,100331.03
2023-03-04T21:34:51.794Z,100335.47
2023-03-04T21:37:23.972Z,100328.50
2023-03-04T21:39:51.522Z,100330.47
2023-03-04T21:42:19.501Z,100313.88
2023-03-04T21:44:51.158Z,100323.16
2023-03-04T21:47:21.972Z,100336.25
2023-03-04T21:49:49.307Z,100358.72
2023-03-04T21:52:18.194Z,100366.47
2023-03-04T21:54:45.598Z,100368.22
2023-03-04T21:57:14.223Z,100364.91
2023-03-04T21:59:41.654Z,100363.28
2023-03-04T22:02:20.917Z,100365.69
2023-03-04T22:04:48.445Z,100371.56
2023-03-04T22:07:15.675Z,100378.63
2023-03-04T22:09:42.850Z,100373.28
2023-03-04T22:12:09.967Z,100375.03
2023-03-04T22:14:37.031Z,100370.63
2023-03-04T22:17:04.232Z,100395.84
2023-03-04T22:19:33.055Z,100402.25
2023-03-04T22:22:00.379Z,100392.59
2023-03-04T22:24:27.701Z,100406.31
2023-03-04T22:26:57.591Z,100413.28
2023-03-04T22:29:24.786Z,100414.03
2023-03-04T22:31:51.837Z,100415.81
2023-03-04T22:34:18.933Z,100417.47
2023-03-04T22:36:47.316Z,100426.69
2023-03-04T22:39:19.384Z,100425.63
2023-03-04T22:41:46.876Z,100430.75
2023-03-04T22:44:14.162Z,100429.13
2023-03-04T22:46:42.315Z,100436.09
2023-03-04T22:49:12.600Z,100428.03
2023-03-04T22:51:42.776Z,100427.16
2023-03-04T22:54:15.603Z,100418.38
2023-03-04T22:56:43.211Z,100413.34
2023-03-04T22:59:10.920Z,100408.41
2023-03-04T23:01:38.074Z,100411.19
2023-03-04T23:04:05.507Z,100412.34
2023-03-04T23:06:32.663Z,100402.75
2023-03-04T23:09:01.137Z,100398.66
2023-03-04T23:11:31.759Z,100391.28
2023-03-04T23:14:02.194Z,100392.97
2023-03-04T23:16:29.370Z,100385.09
2023-03-04T23:18:59.141Z,100382.69
2023-03-04T23:21:28.405Z,100400.03
2023-03-04T23:23:55.636Z,100403.28
2023-03-04T23:26:30.535Z,100399.00
2023-03-04T23:29:00.345Z,100404.47
2023-03-04T23:31:32.299Z,100410.81
2023-03-04T23:34:01.152Z,100403.78
2023-03-04T23:36:34.992Z,100403.88
2023-03-04T23:39:03.319Z,100415.41
2023-03-04T23:41:33.015Z,100409.44
2023-03-04T23:44:01.035Z,100406.66
2023-03-04T23:46:29.341Z,100406.84
2023-03-04T23:48:56.629Z,100405.28
2023-03-04T23:51:27.778Z,100408.97
2023-03-04T23:53:56.140Z,100394.94
2023-03-04T23:56:30.443Z,100398.66
2023-03-04T23:58:58.709Z,100384.84
